Time;durP1;ratioP1;P1;durP2;ratioP2;P2;SDS_P1;SDS_P2;PMS_P1;PMS_P2;Temp;Humidity;BMP_temperature;BMP_pressure;BME280_temperature;BME280_humidity;BME280_pressure;Samples;Min_cycle;Max_cycle;Signal;HPM_P1;HPM_P2
2022/01/14 00:01:12;;;;;;;57.45;15.70;;;;;;;;;;5148693;27;20080;-64
2022/01/14 00:03:39;;;;;;;59.85;15.70;;;;;;;;;;5151862;27;20054;-64
2022/01/14 00:06:05;;;;;;;53.45;16.33;;;;;;;;;;5131347;27;20590;-64
2022/01/14 00:08:32;;;;;;;55.45;15.35;;;;;;;;;;5132679;27;20067;-64
2022/01/14 00:11:00;;;;;;;64.93;16.52;;;;;;;;;;5132419;27;20524;-64
2022/01/14 00:16:13;;;;;;;49.67;15.05;;;;;;;;;;5100223;27;20050;-64
2022/01/14 00:18:40;;;;;;;46.65;14.45;;;;;;;;;;5146020;27;20120;-64
2022/01/14 00:21:06;;;;;;;48.67;15.85;;;;;;;;;;5153109;27;20511;-64
2022/01/14 00:23:37;;;;;;;57.28;17.30;;;;;;;;;;5152918;27;20053;-64
2022/01/14 00:34:06;;;;;;;49.47;15.57;;;;;;;;;;5151563;27;20047;-64
2022/01/14 00:36:32;;;;;;;50.10;16.08;;;;;;;;;;5133380;27;20061;-64
2022/01/14 00:38:58;;;;;;;46.70;15.45;;;;;;;;;;5131595;27;20054;-65
2022/01/14 00:41:24;;;;;;;49.03;16.58;;;;;;;;;;5131465;27;20052;-64
2022/01/14 00:43:57;;;;;;;39.78;15.27;;;;;;;;;;5131950;27;20050;-65
2022/01/14 00:46:24;;;;;;;38.97;14.15;;;;;;;;;;5132243;27;20059;-65
2022/01/14 00:48:50;;;;;;;50.78;16.15;;;;;;;;;;5134332;27;20054;-65
2022/01/14 00:51:17;;;;;;;54.90;16.58;;;;;;;;;;5151352;27;20051;-65
2022/01/14 00:53:43;;;;;;;46.35;15.95;;;;;;;;;;5152068;27;20141;-64
2022/01/14 00:56:25;;;;;;;50.10;16.52;;;;;;;;;;5135928;27;20047;-64
2022/01/14 01:01:38;;;;;;;43.90;15.57;;;;;;;;;;5151251;27;20050;-64
2022/01/14 01:04:05;;;;;;;43.90;15.23;;;;;;;;;;5151700;27;20057;-64
2022/01/14 01:06:31;;;;;;;47.30;15.57;;;;;;;;;;5152083;27;20057;-64
2022/01/14 01:08:58;;;;;;;48.05;15.95;;;;;;;;;;5150301;27;21566;-64
2022/01/14 01:11:28;;;;;;;48.25;15.30;;;;;;;;;;5152628;27;20059;-64
2022/01/14 01:14:07;;;;;;;50.50;16.58;;;;;;;;;;5151003;27;20186;-64
2022/01/14 01:16:34;;;;;;;51.00;15.95;;;;;;;;;;5150672;27;20053;-64
2022/01/14 01:19:00;;;;;;;48.10;16.58;;;;;;;;;;5131269;27;20087;-64
2022/01/14 01:21:26;;;;;;;43.97;16.13;;;;;;;;;;5131118;27;20108;-64
2022/01/14 01:23:53;;;;;;;50.40;16.35;;;;;;;;;;5129622;27;20051;-65
2022/01/14 01:26:35;;;;;;;51.60;16.17;;;;;;;;;;5130659;27;20059;-64
2022/01/14 01:31:40;;;;;;;53.40;16.08;;;;;;;;;;5151285;27;20054;-64
2022/01/14 01:34:06;;;;;;;53.63;16.38;;;;;;;;;;5149253;27;20043;-65
2022/01/14 01:36:33;;;;;;;54.75;15.40;;;;;;;;;;5131348;27;20056;-64
2022/01/14 01:38:59;;;;;;;62.45;15.55;;;;;;;;;;5130478;27;20109;-64
2022/01/14 01:41:25;;;;;;;55.13;16.50;;;;;;;;;;5129802;27;20059;-66
2022/01/14 01:43:53;;;;;;;48.53;15.70;;;;;;;;;;5148801;27;20058;-64
2022/01/14 01:46:23;;;;;;;50.65;15.52;;;;;;;;;;5150039;27;20501;-64
2022/01/14 01:48:53;;;;;;;49.38;14.63;;;;;;;;;;5150833;27;20057;-64
2022/01/14 01:51:19;;;;;;;52.65;16.10;;;;;;;;;;5151083;27;20047;-64
2022/01/14 01:53:47;;;;;;;53.38;15.15;;;;;;;;;;5131224;27;20143;-64
2022/01/14 01:56:14;;;;;;;56.00;15.60;;;;;;;;;;5130595;27;20047;-64
2022/01/14 01:58:40;;;;;;;58.38;16.85;;;;;;;;;;5130063;27;20667;-64
2022/01/14 02:01:07;;;;;;;57.92;16.27;;;;;;;;;;5130647;27;20549;-64
2022/01/14 02:03:34;;;;;;;49.45;15.43;;;;;;;;;;5130875;27;20418;-64
2022/01/14 02:06:01;;;;;;;48.55;15.50;;;;;;;;;;5139665;27;20069;-64
2022/01/14 02:08:28;;;;;;;49.88;15.82;;;;;;;;;;5129619;27;20044;-64
2022/01/14 02:10:54;;;;;;;53.08;15.27;;;;;;;;;;5130281;27;20048;-64
2022/01/14 02:13:21;;;;;;;55.15;16.45;;;;;;;;;;5142349;27;20063;-64
2022/01/14 02:16:16;;;;;;;51.13;16.65;;;;;;;;;;5149957;27;20043;-64
2022/01/14 02:19:11;;;;;;;44.92;15.20;;;;;;;;;;5150798;27;20057;-64
2022/01/14 02:24:33;;;;;;;51.65;17.77;;;;;;;;;;5130002;27;20056;-65
2022/01/14 02:27:00;;;;;;;57.05;15.93;;;;;;;;;;5129826;27;20059;-64
2022/01/14 02:29:26;;;;;;;50.33;15.95;;;;;;;;;;5129871;27;20051;-64
2022/01/14 02:31:52;;;;;;;74.15;18.40;;;;;;;;;;5128203;27;20043;-64
2022/01/14 02:34:19;;;;;;;63.55;16.88;;;;;;;;;;5131280;27;20102;-64
2022/01/14 02:36:46;;;;;;;60.13;15.77;;;;;;;;;;5129045;27;20106;-64
2022/01/14 02:39:13;;;;;;;50.38;15.20;;;;;;;;;;5130361;27;20113;-64
2022/01/14 02:41:41;;;;;;;56.65;16.48;;;;;;;;;;5129233;27;20054;-64
2022/01/14 02:44:09;;;;;;;45.15;16.13;;;;;;;;;;5129520;27;20506;-64
2022/01/14 02:46:49;;;;;;;45.33;15.23;;;;;;;;;;5128992;27;20059;-64
2022/01/14 02:49:15;;;;;;;46.80;15.70;;;;;;;;;;5130063;27;20130;-64
2022/01/14 02:51:42;;;;;;;41.30;15.43;;;;;;;;;;5144712;27;20051;-64
2022/01/14 02:54:14;;;;;;;51.53;16.05;;;;;;;;;;5150834;27;20062;-64
2022/01/14 02:56:42;;;;;;;53.78;16.33;;;;;;;;;;5149233;27;20138;-65
2022/01/14 02:59:12;;;;;;;49.70;15.57;;;;;;;;;;5136580;27;20054;-64
2022/01/14 03:01:38;;;;;;;38.22;15.10;;;;;;;;;;5133178;27;20487;-64
2022/01/14 03:04:07;;;;;;;45.83;13.93;;;;;;;;;;5134628;27;22109;-64
2022/01/14 03:06:33;;;;;;;47.42;14.07;;;;;;;;;;5133070;27;20050;-64
2022/01/14 03:09:00;;;;;;;56.50;15.13;;;;;;;;;;5132197;27;20139;-64
2022/01/14 03:11:39;;;;;;;46.95;15.40;;;;;;;;;;5132748;27;20494;-64
2022/01/14 03:14:05;;;;;;;60.13;15.52;;;;;;;;;;5132376;27;20445;-64
2022/01/14 03:16:38;;;;;;;45.15;16.10;;;;;;;;;;5153594;27;20058;-65
2022/01/14 03:19:08;;;;;;;48.17;15.25;;;;;;;;;;5154195;27;20082;-64
2022/01/14 03:21:41;;;;;;;41.97;14.50;;;;;;;;;;5152966;27;20467;-64
2022/01/14 03:25:37;;;;;;;49.05;14.93;;;;;;;;;;5152391;27;20047;-65
2022/01/14 03:27:10;;;;;;;44.50;13.95;;;;;;;;;;5132478;27;20101;-64
2022/01/14 03:29:36;;;;;;;48.20;14.60;;;;;;;;;;5132050;27;20075;-64
2022/01/14 03:32:04;;;;;;;62.15;15.02;;;;;;;;;;5114469;27;20509;-64
2022/01/14 03:34:30;;;;;;;47.42;14.77;;;;;;;;;;5133216;27;20059;-64
2022/01/14 03:36:57;;;;;;;67.40;15.20;;;;;;;;;;5131802;27;20062;-64
2022/01/14 03:39:23;;;;;;;52.72;14.27;;;;;;;;;;5132071;27;20098;-64
2022/01/14 03:41:50;;;;;;;57.15;15.88;;;;;;;;;;5132290;27;20138;-64
2022/01/14 03:44:16;;;;;;;55.83;15.18;;;;;;;;;;5131217;27;20083;-64
2022/01/14 03:46:43;;;;;;;54.83;14.85;;;;;;;;;;5152614;27;20535;-64
2022/01/14 03:49:10;;;;;;;46.55;15.25;;;;;;;;;;5152777;27;20158;-64
2022/01/14 03:51:36;;;;;;;82.72;17.13;;;;;;;;;;5152346;27;20567;-64
2022/01/14 03:54:03;;;;;;;41.65;14.43;;;;;;;;;;5145052;27;20058;-64
2022/01/14 03:56:29;;;;;;;61.00;17.38;;;;;;;;;;5146405;27;20079;-64
2022/01/14 03:58:55;;;;;;;41.13;14.50;;;;;;;;;;5152357;27;20047;-64
2022/01/14 04:01:22;;;;;;;41.90;13.88;;;;;;;;;;5152292;27;20059;-64
2022/01/14 04:03:49;;;;;;;52.50;15.27;;;;;;;;;;5137820;27;20489;-64
2022/01/14 04:06:16;;;;;;;94.15;17.35;;;;;;;;;;5153121;27;20536;-64
2022/01/14 04:08:42;;;;;;;48.15;13.85;;;;;;;;;;5152941;27;20035;-64
2022/01/14 04:11:09;;;;;;;42.35;15.05;;;;;;;;;;5151204;27;20055;-64
2022/01/14 04:16:11;;;;;;;50.63;14.23;;;;;;;;;;5152903;27;20043;-64
2022/01/14 04:18:37;;;;;;;42.22;14.07;;;;;;;;;;5152523;27;20047;-64
2022/01/14 04:21:04;;;;;;;38.85;14.68;;;;;;;;;;5151866;27;20055;-64
2022/01/14 04:23:30;;;;;;;47.35;15.88;;;;;;;;;;5151142;27;20051;-64
2022/01/14 04:25:57;;;;;;;49.40;15.30;;;;;;;;;;5152513;27;20054;-64
2022/01/14 04:28:25;;;;;;;47.00;15.55;;;;;;;;;;5152235;27;20143;-64
2022/01/14 04:30:54;;;;;;;48.95;16.25;;;;;;;;;;5152590;27;20068;-64
2022/01/14 04:33:25;;;;;;;48.20;13.73;;;;;;;;;;5140705;27;20584;-64
2022/01/14 04:35:54;;;;;;;40.05;15.05;;;;;;;;;;5150388;27;20055;-64
2022/01/14 04:38:21;;;;;;;50.95;15.70;;;;;;;;;;5150948;27;20053;-64
2022/01/14 04:40:47;;;;;;;50.55;14.77;;;;;;;;;;5152096;27;20051;-64
2022/01/14 04:43:17;;;;;;;66.43;16.10;;;;;;;;;;5148391;27;20133;-64
2022/01/14 04:46:02;;;;;;;54.90;15.68;;;;;;;;;;5151868;27;20051;-65
2022/01/14 04:48:30;;;;;;;68.32;16.00;;;;;;;;;;5152411;27;20075;-65
2022/01/14 04:50:57;;;;;;;46.03;14.80;;;;;;;;;;5151639;27;20070;-65
2022/01/14 04:53:24;;;;;;;38.13;15.15;;;;;;;;;;5149515;27;20059;-65
2022/01/14 04:55:50;;;;;;;54.80;16.05;;;;;;;;;;5143251;27;20044;-65
2022/01/14 04:58:17;;;;;;;62.08;15.98;;;;;;;;;;5130367;27;20119;-65
2022/01/14 05:00:43;;;;;;;41.72;15.48;;;;;;;;;;5129290;27;20174;-65
2022/01/14 05:03:10;;;;;;;60.28;15.32;;;;;;;;;;5138814;27;21018;-65
2022/01/14 05:05:40;;;;;;;41.38;15.52;;;;;;;;;;5150740;27;20083;-65
2022/01/14 05:08:10;;;;;;;39.03;15.05;;;;;;;;;;5140637;27;20051;-65
2022/01/14 05:10:49;;;;;;;47.08;16.67;;;;;;;;;;5129399;27;20047;-64
2022/01/14 05:13:15;;;;;;;66.72;14.95;;;;;;;;;;5130424;27;20524;-64
2022/01/14 05:15:42;;;;;;;54.30;16.58;;;;;;;;;;5134437;27;20067;-65
2022/01/14 05:18:08;;;;;;;56.47;16.52;;;;;;;;;;5151148;27;20051;-65
2022/01/14 05:20:35;;;;;;;47.72;16.80;;;;;;;;;;5150831;27;20062;-65
2022/01/14 05:23:01;;;;;;;42.78;15.57;;;;;;;;;;5148349;27;20131;-65
2022/01/14 05:25:27;;;;;;;42.42;14.55;;;;;;;;;;5150197;27;20055;-65
2022/01/14 05:27:54;;;;;;;50.50;16.20;;;;;;;;;;5150756;27;20055;-65
2022/01/14 05:30:20;;;;;;;59.35;15.15;;;;;;;;;;5150062;27;20055;-65
2022/01/14 05:32:47;;;;;;;36.65;15.18;;;;;;;;;;5145196;27;20054;-65
2022/01/14 05:35:15;;;;;;;69.60;16.83;;;;;;;;;;5130765;27;20131;-65
2022/01/14 05:37:41;;;;;;;49.45;15.60;;;;;;;;;;5128862;27;20073;-65
2022/01/14 05:40:08;;;;;;;38.85;15.85;;;;;;;;;;5145745;27;20059;-64
2022/01/14 05:42:34;;;;;;;48.47;15.50;;;;;;;;;;5144454;27;20588;-65
2022/01/14 05:45:00;;;;;;;45.97;15.82;;;;;;;;;;5129783;27;20346;-64
2022/01/14 05:47:27;;;;;;;48.50;16.48;;;;;;;;;;5129354;27;20150;-65
2022/01/14 05:49:53;;;;;;;53.90;16.60;;;;;;;;;;5129020;27;20104;-65
2022/01/14 05:52:21;;;;;;;46.97;16.23;;;;;;;;;;5129791;27;20062;-65
2022/01/14 05:54:51;;;;;;;38.47;15.63;;;;;;;;;;5129607;27;20051;-65
2022/01/14 05:57:18;;;;;;;49.92;15.45;;;;;;;;;;5129404;27;20058;-64
2022/01/14 05:59:44;;;;;;;49.33;16.90;;;;;;;;;;5135637;27;20047;-65
2022/01/14 06:02:10;;;;;;;47.42;15.82;;;;;;;;;;5128189;27;20048;-65
2022/01/14 06:04:36;;;;;;;59.00;17.58;;;;;;;;;;5130296;27;20436;-65
2022/01/14 06:07:03;;;;;;;42.38;16.08;;;;;;;;;;5129467;27;20051;-64
2022/01/14 06:09:29;;;;;;;42.72;15.90;;;;;;;;;;5129246;27;20044;-65
2022/01/14 06:11:56;;;;;;;44.55;15.07;;;;;;;;;;5128639;27;20048;-66
2022/01/14 06:14:22;;;;;;;37.47;15.02;;;;;;;;;;5128574;27;20060;-65
2022/01/14 06:16:48;;;;;;;40.00;15.55;;;;;;;;;;5128498;27;20048;-66
2022/01/14 06:19:15;;;;;;;43.88;15.90;;;;;;;;;;5129594;27;20517;-65
2022/01/14 06:21:42;;;;;;;49.53;15.38;;;;;;;;;;5128738;27;20177;-65
2022/01/14 06:24:08;;;;;;;41.15;15.55;;;;;;;;;;5129368;27;20073;-65
2022/01/14 06:26:34;;;;;;;38.78;15.00;;;;;;;;;;5128909;27;20062;-65
2022/01/14 06:29:00;;;;;;;39.17;14.68;;;;;;;;;;5129131;27;20142;-65
2022/01/14 06:31:27;;;;;;;41.83;14.65;;;;;;;;;;5128482;27;20056;-64
2022/01/14 06:33:53;;;;;;;35.53;14.65;;;;;;;;;;5128951;27;20062;-64
2022/01/14 06:36:19;;;;;;;39.95;15.75;;;;;;;;;;5128527;27;20059;-64
2022/01/14 06:38:46;;;;;;;43.08;15.40;;;;;;;;;;5127442;27;20062;-64
2022/01/14 06:41:12;;;;;;;43.40;16.10;;;;;;;;;;5129014;27;20595;-64
2022/01/14 06:43:38;;;;;;;35.25;15.43;;;;;;;;;;5138031;27;20513;-64
2022/01/14 06:46:05;;;;;;;32.95;14.85;;;;;;;;;;5148723;27;20059;-64
2022/01/14 06:48:33;;;;;;;40.88;16.40;;;;;;;;;;5149648;27;20138;-64
2022/01/14 06:51:00;;;;;;;34.75;15.70;;;;;;;;;;5140820;27;20062;-64
2022/01/14 06:53:27;;;;;;;35.03;14.93;;;;;;;;;;5128556;27;20900;-65
2022/01/14 06:55:53;;;;;;;36.13;15.70;;;;;;;;;;5128725;27;20533;-64
2022/01/14 06:58:19;;;;;;;43.15;15.10;;;;;;;;;;5129074;27;20055;-65
2022/01/14 07:00:45;;;;;;;37.08;14.82;;;;;;;;;;5129184;27;20047;-66
2022/01/14 07:03:12;;;;;;;37.95;14.60;;;;;;;;;;5147993;27;20555;-66
2022/01/14 07:05:38;;;;;;;31.55;14.30;;;;;;;;;;5148790;27;20554;-66
2022/01/14 07:08:04;;;;;;;34.13;14.88;;;;;;;;;;5148258;27;20061;-66
2022/01/14 07:10:36;;;;;;;33.28;13.90;;;;;;;;;;5127729;27;20051;-66
2022/01/14 07:13:03;;;;;;;31.90;14.23;;;;;;;;;;5127985;27;20536;-64
2022/01/14 07:15:29;;;;;;;33.88;14.43;;;;;;;;;;5128442;27;20059;-66
2022/01/14 07:17:56;;;;;;;28.27;13.98;;;;;;;;;;5128247;27;20052;-66
2022/01/14 07:20:23;;;;;;;32.05;14.63;;;;;;;;;;5128033;27;20600;-66
2022/01/14 07:22:49;;;;;;;35.53;15.15;;;;;;;;;;5128063;27;20537;-66
2022/01/14 07:25:17;;;;;;;38.28;15.00;;;;;;;;;;5128006;27;20101;-66
2022/01/14 07:27:43;;;;;;;37.55;15.65;;;;;;;;;;5128175;27;20514;-66
2022/01/14 07:30:10;;;;;;;30.33;14.48;;;;;;;;;;5128122;27;20062;-66
2022/01/14 07:32:37;;;;;;;35.50;14.55;;;;;;;;;;5128328;27;20597;-66
2022/01/14 07:35:03;;;;;;;42.83;15.50;;;;;;;;;;5128497;27;20532;-66
2022/01/14 07:37:30;;;;;;;33.92;15.13;;;;;;;;;;5127461;27;20441;-66
2022/01/14 07:39:56;;;;;;;36.67;15.98;;;;;;;;;;5128802;27;20055;-65
2022/01/14 07:42:23;;;;;;;33.50;13.38;;;;;;;;;;5131214;27;20051;-66
2022/01/14 07:44:49;;;;;;;38.13;14.02;;;;;;;;;;5136293;27;20054;-66
2022/01/14 07:47:16;;;;;;;33.72;14.35;;;;;;;;;;5144713;27;20974;-66
2022/01/14 07:49:42;;;;;;;30.88;13.43;;;;;;;;;;5131216;27;20123;-67
2022/01/14 07:52:08;;;;;;;31.92;14.80;;;;;;;;;;5130491;27;20066;-66
2022/01/14 07:54:35;;;;;;;31.98;14.90;;;;;;;;;;5131674;27;20093;-66
2022/01/14 07:57:02;;;;;;;33.20;14.35;;;;;;;;;;5133110;27;20075;-66
2022/01/14 07:59:31;;;;;;;31.70;13.45;;;;;;;;;;5143692;27;20051;-67
2022/01/14 08:01:58;;;;;;;29.90;15.07;;;;;;;;;;5151896;27;20094;-67
2022/01/14 08:04:26;;;;;;;34.03;14.75;;;;;;;;;;5152101;27;20054;-67
2022/01/14 08:06:54;;;;;;;28.90;14.43;;;;;;;;;;5152118;27;20051;-66
2022/01/14 08:09:22;;;;;;;;;;;;;;;;;;5150093;27;20051;-64
2022/01/14 08:11:49;;;;;;;29.52;13.43;;;;;;;;;;5149265;27;45677;-65
2022/01/14 08:14:15;;;;;;;35.83;15.18;;;;;;;;;;5133827;27;20061;-65
2022/01/14 08:16:42;;;;;;;28.85;14.52;;;;;;;;;;5129890;27;20509;-65
2022/01/14 08:19:08;;;;;;;96.82;47.50;;;;;;;;;;5130965;27;20062;-63
2022/01/14 08:21:35;;;;;;;33.10;15.32;;;;;;;;;;5135089;27;20493;-65
2022/01/14 08:24:01;;;;;;;30.15;13.80;;;;;;;;;;5144123;27;20428;-65
2022/01/14 08:26:27;;;;;;;34.90;15.15;;;;;;;;;;5151646;27;20595;-65
2022/01/14 08:28:54;;;;;;;31.92;14.93;;;;;;;;;;5131965;27;20407;-65
2022/01/14 08:31:22;;;;;;;34.58;14.50;;;;;;;;;;5129479;27;20055;-65
2022/01/14 08:33:48;;;;;;;32.53;14.25;;;;;;;;;;5134079;27;20051;-67
2022/01/14 08:36:14;;;;;;;26.20;13.80;;;;;;;;;;5131901;27;20585;-67
2022/01/14 08:38:41;;;;;;;34.42;14.35;;;;;;;;;;5137311;27;20577;-65
2022/01/14 08:41:07;;;;;;;33.58;14.43;;;;;;;;;;5138024;27;20052;-65
2022/01/14 08:43:33;;;;;;;29.95;13.57;;;;;;;;;;5143429;27;20043;-65
2022/01/14 08:46:02;;;;;;;32.40;13.98;;;;;;;;;;5136399;27;20065;-65
2022/01/14 08:48:30;;;;;;;33.90;14.30;;;;;;;;;;5140442;27;20043;-66
2022/01/14 08:50:57;;;;;;;32.17;13.70;;;;;;;;;;5144665;27;20134;-65
2022/01/14 08:53:27;;;;;;;33.05;14.68;;;;;;;;;;5139292;27;20055;-66
2022/01/14 08:55:55;;;;;;;32.50;13.90;;;;;;;;;;5130053;27;20058;-65
2022/01/14 08:58:22;;;;;;;32.17;14.63;;;;;;;;;;5134727;27;20062;-67
2022/01/14 09:00:49;;;;;;;31.38;15.73;;;;;;;;;;5145970;27;20047;-64
2022/01/14 09:03:16;;;;;;;31.83;14.67;;;;;;;;;;5151205;27;20428;-65
2022/01/14 09:05:42;;;;;;;34.67;15.23;;;;;;;;;;5132149;27;20055;-64
2022/01/14 09:08:08;;;;;;;27.27;14.32;;;;;;;;;;5129911;27;20051;-64
2022/01/14 09:10:35;;;;;;;36.40;14.73;;;;;;;;;;5132394;27;20052;-66
2022/01/14 09:13:01;;;;;;;27.05;13.93;;;;;;;;;;5142819;27;20138;-63
2022/01/14 09:15:27;;;;;;;32.95;15.05;;;;;;;;;;5134459;27;20052;-62
2022/01/14 09:17:54;;;;;;;36.55;14.90;;;;;;;;;;5129339;27;20059;-62
2022/01/14 09:20:20;;;;;;;31.30;15.73;;;;;;;;;;5130252;27;20052;-62
2022/01/14 09:22:51;;;;;;;32.33;15.05;;;;;;;;;;5129081;27;20094;-65
2022/01/14 09:25:18;;;;;;;31.85;15.45;;;;;;;;;;5129463;27;20142;-65
2022/01/14 09:27:47;;;;;;;29.35;14.60;;;;;;;;;;5129797;27;20084;-63
2022/01/14 09:30:13;;;;;;;30.10;15.15;;;;;;;;;;5141884;27;20058;-65
2022/01/14 09:32:39;;;;;;;31.58;15.40;;;;;;;;;;5141542;27;20048;-62
2022/01/14 09:35:07;;;;;;;27.90;14.80;;;;;;;;;;5130074;27;20057;-65
2022/01/14 09:37:34;;;;;;;33.65;15.68;;;;;;;;;;5145322;27;20942;-64
2022/01/14 09:40:01;;;;;;;28.98;14.52;;;;;;;;;;5133363;27;20048;-62
2022/01/14 09:42:30;;;;;;;35.53;15.18;;;;;;;;;;5137586;27;20082;-64
2022/01/14 09:44:56;;;;;;;30.25;14.68;;;;;;;;;;5132572;27;20058;-63
2022/01/14 09:47:23;;;;;;;34.05;14.70;;;;;;;;;;5142824;27;20534;-64
2022/01/14 09:49:49;;;;;;;36.70;15.18;;;;;;;;;;5135336;27;20073;-64
2022/01/14 09:52:16;;;;;;;32.63;14.73;;;;;;;;;;5134172;27;20060;-64
2022/01/14 09:54:43;;;;;;;41.53;17.75;;;;;;;;;;5131797;27;20066;-64
2022/01/14 09:57:11;;;;;;;31.60;15.05;;;;;;;;;;5142456;27;20051;-64
2022/01/14 09:59:38;;;;;;;25.95;14.38;;;;;;;;;;5136953;27;20150;-64
2022/01/14 10:02:05;;;;;;;29.42;14.15;;;;;;;;;;5134559;27;20062;-64
2022/01/14 10:04:32;;;;;;;29.17;15.15;;;;;;;;;;5136091;27;20527;-63
2022/01/14 10:07:00;;;;;;;35.67;16.65;;;;;;;;;;5130055;27;21470;-64
2022/01/14 10:09:40;;;;;;;31.60;15.18;;;;;;;;;;5132225;27;20050;-63
2022/01/14 10:12:13;;;;;;;27.65;14.45;;;;;;;;;;5145253;27;20055;-63
2022/01/14 10:14:40;;;;;;;35.88;14.25;;;;;;;;;;5127935;27;20146;-65
2022/01/14 10:17:07;;;;;;;37.55;15.80;;;;;;;;;;5143419;27;20051;-65
2022/01/14 10:19:35;;;;;;;35.83;14.82;;;;;;;;;;5144259;27;20162;-65
2022/01/14 10:22:16;;;;;;;28.23;14.70;;;;;;;;;;5159125;27;20131;-65
2022/01/14 10:24:52;;;;;;;30.98;14.05;;;;;;;;;;5143385;27;20082;-65
2022/01/14 10:27:29;;;;;;;27.08;14.63;;;;;;;;;;5157865;27;20051;-65
2022/01/14 10:30:00;;;;;;;35.65;15.38;;;;;;;;;;5135554;27;20055;-65
2022/01/14 10:32:30;;;;;;;38.67;16.42;;;;;;;;;;5145240;27;20142;-64
2022/01/14 10:35:03;;;;;;;30.52;14.65;;;;;;;;;;5152489;27;20990;-64
2022/01/14 10:37:32;;;;;;;32.65;15.00;;;;;;;;;;5156384;27;20513;-64
2022/01/14 10:39:58;;;;;;;29.55;14.57;;;;;;;;;;5166850;27;20460;-64
2022/01/14 10:42:34;;;;;;;31.05;16.45;;;;;;;;;;5153604;27;20505;-64
2022/01/14 10:45:13;;;;;;;31.95;14.88;;;;;;;;;;5159989;27;20428;-64
2022/01/14 10:47:40;;;;;;;33.13;15.60;;;;;;;;;;5161235;27;20050;-64
2022/01/14 10:50:07;;;;;;;33.42;15.50;;;;;;;;;;5150603;27;20083;-64
2022/01/14 10:52:33;;;;;;;34.90;15.60;;;;;;;;;;5163927;27;20062;-64
2022/01/14 10:54:59;;;;;;;31.13;14.88;;;;;;;;;;5140688;27;20145;-64
2022/01/14 10:57:27;;;;;;;29.63;16.52;;;;;;;;;;5153069;27;20043;-63
2022/01/14 10:59:54;;;;;;;36.03;16.70;;;;;;;;;;5152106;27;20051;-64
2022/01/14 11:02:34;;;;;;;26.70;14.88;;;;;;;;;;5145506;27;20439;-64
2022/01/14 11:05:10;;;;;;;29.95;15.95;;;;;;;;;;5138551;27;20087;-64
2022/01/14 11:07:42;;;;;;;30.20;15.57;;;;;;;;;;5131252;27;20144;-65
2022/01/14 11:10:13;;;;;;;32.05;15.55;;;;;;;;;;5136674;27;20051;-65
2022/01/14 11:12:40;;;;;;;30.45;15.65;;;;;;;;;;5142886;27;20138;-65
2022/01/14 11:15:08;;;;;;;36.50;15.65;;;;;;;;;;5158863;27;20059;-65
2022/01/14 11:17:36;;;;;;;32.53;16.83;;;;;;;;;;5161811;27;20055;-64
2022/01/14 11:20:22;;;;;;;30.35;15.32;;;;;;;;;;5154884;27;20588;-64
2022/01/14 11:25:43;;;;;;;30.83;16.00;;;;;;;;;;5164891;27;20055;-64
2022/01/14 11:28:09;;;;;;;31.75;14.63;;;;;;;;;;5170148;27;20051;-64
2022/01/14 11:30:38;;;;;;;32.72;16.15;;;;;;;;;;5152320;27;20043;-63
2022/01/14 11:33:05;;;;;;;27.77;14.55;;;;;;;;;;5154842;27;20057;-64
2022/01/14 11:35:32;;;;;;;35.78;16.85;;;;;;;;;;5158103;27;20092;-64
2022/01/14 11:37:59;;;;;;;38.10;16.67;;;;;;;;;;5151367;27;20053;-64
2022/01/14 11:40:25;;;;;;;32.20;15.73;;;;;;;;;;5148429;27;20513;-64
2022/01/14 11:42:59;;;;;;;33.97;16.23;;;;;;;;;;5158118;27;20428;-64
2022/01/14 11:45:44;;;;;;;36.20;16.13;;;;;;;;;;5156731;27;20082;-67
2022/01/14 11:48:46;;;;;;;30.05;16.25;;;;;;;;;;5164758;27;20058;-64
2022/01/14 11:51:17;;;;;;;35.30;15.73;;;;;;;;;;5140312;27;20137;-68
2022/01/14 11:53:45;;;;;;;35.30;16.35;;;;;;;;;;5157222;27;20060;-65
2022/01/14 11:56:29;;;;;;;32.42;16.88;;;;;;;;;;5160997;27;20577;-65
2022/01/14 11:59:14;;;;;;;30.67;16.13;;;;;;;;;;5144285;27;20050;-64
2022/01/14 12:01:41;;;;;;;38.58;15.88;;;;;;;;;;5138854;27;20052;-66
2022/01/14 12:04:07;;;;;;;23.45;14.73;;;;;;;;;;5141057;27;20136;-65
2022/01/14 12:06:49;;;;;;;31.25;14.63;;;;;;;;;;5139075;27;20604;-64
2022/01/14 12:09:16;;;;;;;35.20;14.23;;;;;;;;;;5140152;27;20044;-64
2022/01/14 12:11:42;;;;;;;28.80;14.35;;;;;;;;;;5138426;27;20522;-64
2022/01/14 12:14:11;;;;;;;37.17;15.88;;;;;;;;;;5138807;27;20059;-64
2022/01/14 12:16:49;;;;;;;;;;;;;;;;;;5146742;27;20122;-65
2022/01/14 12:19:17;;;;;;;27.70;13.15;;;;;;;;;;5137814;27;45394;-65
2022/01/14 12:21:43;;;;;;;32.22;14.68;;;;;;;;;;5139998;27;20081;-64
2022/01/14 12:24:16;;;;;;;33.03;14.43;;;;;;;;;;5147065;27;20150;-64
2022/01/14 12:26:43;;;;;;;39.13;13.73;;;;;;;;;;5151901;27;20133;-65
2022/01/14 12:29:10;;;;;;;29.58;12.88;;;;;;;;;;5168884;27;20051;-65
2022/01/14 12:32:00;;;;;;;30.60;13.85;;;;;;;;;;5139401;27;20056;-65
2022/01/14 12:34:27;;;;;;;28.92;12.95;;;;;;;;;;5141149;27;20061;-65
2022/01/14 12:36:53;;;;;;;29.83;13.00;;;;;;;;;;5165572;27;20051;-65
2022/01/14 12:39:20;;;;;;;34.00;12.98;;;;;;;;;;5142037;27;20057;-65
2022/01/14 12:41:50;;;;;;;32.25;13.63;;;;;;;;;;5140787;27;20846;-64
2022/01/14 12:44:16;;;;;;;35.88;14.27;;;;;;;;;;5142696;27;20055;-64
2022/01/14 12:46:53;;;;;;;33.50;13.25;;;;;;;;;;5148406;27;20047;-65
2022/01/14 12:49:24;;;;;;;27.15;12.02;;;;;;;;;;5135723;27;20073;-64
2022/01/14 12:52:00;;;;;;;38.78;12.88;;;;;;;;;;5139367;27;20146;-64
2022/01/14 12:54:34;;;;;;;30.20;11.77;;;;;;;;;;5142037;27;20138;-64
2022/01/14 12:57:01;;;;;;;28.83;13.00;;;;;;;;;;5138064;27;20412;-64
2022/01/14 12:59:41;;;;;;;25.63;11.88;;;;;;;;;;5145026;27;20542;-64
2022/01/14 13:02:08;;;;;;;28.70;12.60;;;;;;;;;;5144333;27;20066;-64
2022/01/14 13:04:34;;;;;;;26.55;13.88;;;;;;;;;;5143811;27;20104;-65
2022/01/14 13:07:02;;;;;;;30.20;13.25;;;;;;;;;;5140667;27;20058;-66
2022/01/14 13:09:30;;;;;;;28.65;12.80;;;;;;;;;;5144462;27;20054;-65
2022/01/14 13:12:01;;;;;;;28.10;13.02;;;;;;;;;;5139396;27;20532;-65
2022/01/14 13:14:35;;;;;;;31.73;13.90;;;;;;;;;;5131465;27;20059;-65
2022/01/14 13:17:07;;;;;;;25.65;11.85;;;;;;;;;;5157462;27;20519;-65
2022/01/14 13:19:35;;;;;;;27.08;13.30;;;;;;;;;;5136856;27;20062;-65
2022/01/14 13:22:08;;;;;;;28.02;12.35;;;;;;;;;;5140435;27;20059;-64
2022/01/14 13:24:35;;;;;;;29.65;13.98;;;;;;;;;;5153159;27;20058;-65
2022/01/14 13:27:11;;;;;;;27.08;10.15;;;;;;;;;;5145164;27;20058;-64
2022/01/14 13:29:39;;;;;;;24.48;10.32;;;;;;;;;;5144197;27;20047;-66
2022/01/14 13:32:06;;;;;;;33.17;12.25;;;;;;;;;;5139167;27;20057;-66
2022/01/14 13:34:33;;;;;;;22.63;11.32;;;;;;;;;;5132840;27;20047;-65
2022/01/14 13:37:00;;;;;;;27.70;10.80;;;;;;;;;;5149263;27;20088;-65
2022/01/14 13:39:26;;;;;;;31.88;11.98;;;;;;;;;;5136511;27;20058;-65
2022/01/14 13:41:53;;;;;;;25.88;12.40;;;;;;;;;;5141583;27;20086;-65
2022/01/14 13:44:26;;;;;;;26.95;12.55;;;;;;;;;;5148978;27;20166;-65
2022/01/14 13:47:00;;;;;;;27.45;12.57;;;;;;;;;;5133663;27;20062;-66
2022/01/14 13:49:26;;;;;;;25.50;11.45;;;;;;;;;;5157002;27;20054;-65
2022/01/14 13:52:01;;;;;;;26.80;12.35;;;;;;;;;;5143468;27;20058;-64
2022/01/14 13:54:28;;;;;;;27.42;11.18;;;;;;;;;;5131616;27;20085;-66
2022/01/14 13:56:54;;;;;;;27.00;11.27;;;;;;;;;;5131566;27;20062;-65
2022/01/14 13:59:21;;;;;;;33.28;12.27;;;;;;;;;;5141154;27;20058;-65
2022/01/14 14:01:58;;;;;;;27.50;11.20;;;;;;;;;;5136445;27;20051;-64
2022/01/14 14:04:26;;;;;;;25.67;10.65;;;;;;;;;;5131939;27;20468;-63
2022/01/14 14:07:03;;;;;;;19.05;9.30;;;;;;;;;;5129099;27;20101;-64
2022/01/14 14:10:06;;;;;;;18.63;9.07;;;;;;;;;;5129240;27;20494;-65
2022/01/14 14:12:37;;;;;;;22.77;10.00;;;;;;;;;;5129295;27;20043;-65
2022/01/14 14:17:59;;;;;;;26.77;9.18;;;;;;;;;;5136174;27;20531;-64
2022/01/14 14:20:25;;;;;;;18.02;8.02;;;;;;;;;;5147716;27;20158;-64
2022/01/14 14:22:52;;;;;;;19.10;8.38;;;;;;;;;;5144108;27;20048;-64
2022/01/14 14:25:30;;;;;;;24.48;8.90;;;;;;;;;;5128971;27;20054;-64
2022/01/14 14:28:01;;;;;;;26.55;8.60;;;;;;;;;;5128406;27;20524;-65
2022/01/14 14:30:38;;;;;;;22.00;8.38;;;;;;;;;;5136280;27;20142;-65
2022/01/14 14:33:09;;;;;;;21.27;7.50;;;;;;;;;;5147838;27;20051;-65
2022/01/14 14:35:37;;;;;;;16.88;7.60;;;;;;;;;;5141411;27;20593;-65
2022/01/14 14:38:04;;;;;;;18.73;7.32;;;;;;;;;;5132552;27;20529;-64
2022/01/14 14:40:32;;;;;;;24.95;7.60;;;;;;;;;;5129044;27;20433;-65
2022/01/14 14:43:00;;;;;;;24.65;7.25;;;;;;;;;;5129232;27;20589;-65
2022/01/14 14:45:27;;;;;;;19.65;7.90;;;;;;;;;;5129310;27;20051;-65
2022/01/14 14:47:53;;;;;;;24.05;7.22;;;;;;;;;;5139633;27;20058;-65
2022/01/14 14:50:21;;;;;;;15.90;6.38;;;;;;;;;;5121963;27;20146;-65
2022/01/14 14:52:48;;;;;;;14.75;6.40;;;;;;;;;;5141543;27;20057;-66
2022/01/14 14:55:22;;;;;;;14.52;6.57;;;;;;;;;;5144821;27;20054;-65